Sharyland, Texas
Current Conditions -  °F | °C
As of 5:53 AM on Sunday 23 Nov 2014 (Local Time) from KMFE Reporting Station
Moderate Fog Moderate Fog  
Wind Chill: 59°   Ceiling: 100
Heat Index: 59°   Visibility: 0.25mi
Dew Point: 59°   Wind: 0mph
Humidity: 100%   Direction: NA
Pressure: 29.77"   Gusts: NA
Location:  26.2167°N, 98.325°W
Report Text: KMFE 231153Z 00000KT 1/4SM FG VV001 15/15 A2977 RMK AO2 SLP080 60000 70034 T01500150 10183 20150 56003
Loading
Personal Weather Stations






























Interactive Weather Map New forecast layout! Learn more

10-Day Weather Forecast

Advertisements
Track Severe Weather on mobile